Time;durP1;ratioP1;P1;durP2;ratioP2;P2;SDS_P1;SDS_P2;PMS_P1;PMS_P2;Temp;Humidity;BMP_temperature;BMP_pressure;BME280_temperature;BME280_humidity;BME280_pressure;Samples;Min_cycle;Max_cycle;Signal;HPM_P1;HPM_P2
2023/03/03 00:00:13;;;;;;;2.23;2.23;;;1.90;99.90;;;;;;5093459;28;20192;-71
2023/03/03 00:02:39;;;;;;;1.08;1.08;;;1.80;99.90;;;;;;5093805;28;20175;-70
2023/03/03 00:05:05;;;;;;;3.80;3.60;;;1.80;99.90;;;;;;5093702;28;20209;-72
2023/03/03 00:07:31;;;;;;;1.50;1.50;;;1.80;99.90;;;;;;5093654;28;20171;-71
2023/03/03 00:09:57;;;;;;;4.43;3.53;;;1.90;99.90;;;;;;5093282;28;20732;-71
2023/03/03 00:12:24;;;;;;;1.70;1.00;;;1.80;99.90;;;;;;5093751;28;20413;-71
2023/03/03 00:14:50;;;;;;;4.93;2.53;;;1.80;99.90;;;;;;5093479;28;20165;-70
2023/03/03 00:17:23;;;;;;;2.35;2.25;;;1.70;99.90;;;;;;5093491;28;20177;-70
2023/03/03 00:19:49;;;;;;;4.75;4.55;;;1.80;99.90;;;;;;5093332;28;20197;-71
2023/03/03 00:22:36;;;;;;;2.38;2.22;;;1.80;99.90;;;;;;5093452;28;20305;-70
2023/03/03 00:25:24;;;;;;;1.83;1.73;;;1.70;99.90;;;;;;5093499;28;20176;-71
2023/03/03 00:27:49;;;;;;;0.77;0.77;;;1.70;99.90;;;;;;5093450;28;20537;-70
2023/03/03 00:30:25;;;;;;;1.40;1.40;;;1.70;99.90;;;;;;5094014;28;20208;-71
2023/03/03 00:32:54;;;;;;;3.13;2.35;;;1.70;99.90;;;;;;5097474;28;20176;-70
2023/03/03 00:35:37;;;;;;;1.08;0.98;;;1.70;99.90;;;;;;5097399;28;20220;-70
2023/03/03 00:38:16;;;;;;;7.57;2.97;;;1.70;99.90;;;;;;5097513;28;20174;-71
2023/03/03 00:40:42;;;;;;;1.98;1.38;;;1.60;99.90;;;;;;5097359;28;20263;-71
2023/03/03 00:43:21;;;;;;;1.97;1.97;;;1.60;99.90;;;;;;5097264;28;20250;-71
2023/03/03 00:45:52;;;;;;;1.70;1.60;;;1.60;99.90;;;;;;5097270;28;20405;-71
2023/03/03 00:48:34;;;;;;;0.73;0.73;;;1.70;99.90;;;;;;5097078;28;20218;-71
2023/03/03 00:51:05;;;;;;;2.58;1.15;;;1.50;99.90;;;;;;5097122;28;20261;-71
2023/03/03 00:53:31;;;;;;;1.13;1.13;;;1.40;99.90;;;;;;5095726;28;20211;-71
2023/03/03 00:55:57;;;;;;;3.70;2.67;;;1.40;99.90;;;;;;5097042;28;20195;-70
2023/03/03 00:58:23;;;;;;;2.35;2.15;;;1.40;99.90;;;;;;5097038;28;20254;-70
2023/03/03 01:00:53;;;;;;;0.65;0.65;;;1.30;99.90;;;;;;5096981;28;20203;-73
2023/03/03 01:03:23;;;;;;;2.15;2.05;;;1.40;99.90;;;;;;5097146;28;20215;-71
2023/03/03 01:05:50;;;;;;;1.85;1.75;;;1.30;99.90;;;;;;5096987;28;20168;-71
2023/03/03 01:08:16;;;;;;;3.40;3.30;;;1.30;99.90;;;;;;5096786;28;20211;-71
2023/03/03 01:10:49;;;;;;;3.17;3.08;;;1.30;99.90;;;;;;5096624;28;20252;-71
2023/03/03 01:13:16;;;;;;;1.83;1.67;;;1.20;99.90;;;;;;5097021;28;20182;-71
2023/03/03 01:15:42;;;;;;;3.75;3.53;;;1.20;99.90;;;;;;5096579;28;20225;-71
2023/03/03 01:18:10;;;;;;;2.85;2.72;;;1.20;99.90;;;;;;5096717;28;20176;-71
2023/03/03 01:20:36;;;;;;;3.60;1.33;;;1.20;99.90;;;;;;5095156;28;20230;-70
2023/03/03 01:23:02;;;;;;;1.15;1.05;;;1.20;99.90;;;;;;5096536;28;20209;-70
2023/03/03 01:25:28;;;;;;;1.02;1.02;;;1.10;99.90;;;;;;5096604;28;20269;-70
2023/03/03 01:27:54;;;;;;;3.73;3.63;;;1.20;99.90;;;;;;5096488;28;20169;-70
2023/03/03 01:30:20;;;;;;;2.70;2.10;;;1.30;99.90;;;;;;5096272;28;20451;-71
2023/03/03 01:32:45;;;;;;;1.10;1.10;;;1.30;99.90;;;;;;5096320;28;20250;-70
2023/03/03 01:35:11;;;;;;;3.67;3.43;;;1.30;99.90;;;;;;5096253;28;20255;-70
2023/03/03 01:37:37;;;;;;;0.87;0.87;;;1.30;99.90;;;;;;5096334;28;20167;-70
2023/03/03 01:40:04;;;;;;;2.53;2.33;;;1.20;99.90;;;;;;5096178;28;20263;-70
2023/03/03 01:42:30;;;;;;;10.30;1.50;;;1.10;99.90;;;;;;5096161;28;20177;-71
2023/03/03 01:45:22;;;;;;;5.03;3.70;;;1.10;99.90;;;;;;5096343;28;20637;-71
2023/03/03 01:47:58;;;;;;;0.60;0.60;;;1.10;99.90;;;;;;5095988;28;20580;-71
2023/03/03 01:50:38;;;;;;;5.18;1.85;;;1.00;99.90;;;;;;5096009;28;20282;-70
2023/03/03 01:53:06;;;;;;;1.77;1.67;;;0.90;99.90;;;;;;5096123;28;20558;-71
2023/03/03 01:55:38;;;;;;;3.38;3.08;;;1.00;99.90;;;;;;5095797;28;20208;-71
2023/03/03 01:58:11;;;;;;;0.75;0.75;;;0.90;99.90;;;;;;5095877;28;20250;-71
2023/03/03 02:00:39;;;;;;;1.42;1.42;;;0.90;99.90;;;;;;5094425;28;20176;-71
2023/03/03 02:03:05;;;;;;;3.50;1.52;;;0.90;99.90;;;;;;5095814;28;20701;-70
2023/03/03 02:05:32;;;;;;;1.90;1.70;;;1.00;99.90;;;;;;5095858;28;20178;-71
2023/03/03 02:07:58;;;;;;;3.33;3.13;;;0.90;99.90;;;;;;5095728;28;20179;-71
2023/03/03 02:10:23;;;;;;;0.47;0.47;;;0.90;99.90;;;;;;5095360;28;20536;-70
2023/03/03 02:12:57;;;;;;;1.73;1.33;;;0.80;99.90;;;;;;5095651;28;20748;-70
2023/03/03 02:15:32;;;;;;;1.67;1.67;;;0.80;99.90;;;;;;5095573;28;20222;-71
2023/03/03 02:18:13;;;;;;;4.32;2.15;;;0.80;99.90;;;;;;5095385;28;20219;-70
2023/03/03 02:20:50;;;;;;;1.38;1.35;;;0.90;99.90;;;;;;5095323;28;20181;-70
2023/03/03 02:23:20;;;;;;;1.88;1.77;;;0.90;99.90;;;;;;5095854;28;20228;-71
2023/03/03 02:25:55;;;;;;;1.55;1.38;;;0.90;99.90;;;;;;5095516;28;20257;-70
2023/03/03 02:28:23;;;;;;;2.63;2.45;;;0.90;99.90;;;;;;5094103;28;20194;-70
2023/03/03 02:30:49;;;;;;;1.15;1.15;;;0.80;99.90;;;;;;5094838;28;20190;-71
2023/03/03 02:33:14;;;;;;;1.20;1.10;;;0.80;99.90;;;;;;5095472;28;20593;-70
2023/03/03 02:35:41;;;;;;;3.37;3.20;;;0.90;99.90;;;;;;5094083;28;20209;-70
2023/03/03 02:38:15;;;;;;;1.25;1.25;;;0.90;99.90;;;;;;5095057;28;20178;-71
2023/03/03 02:40:59;;;;;;;1.48;1.30;;;0.90;99.90;;;;;;5095049;28;20707;-71
2023/03/03 02:43:47;;;;;;;0.80;0.80;;;0.90;99.90;;;;;;5095472;28;20181;-71
2023/03/03 02:46:13;;;;;;;1.58;1.55;;;1.00;99.90;;;;;;5094519;28;20273;-70
2023/03/03 02:48:38;;;;;;;0.60;0.60;;;1.10;99.90;;;;;;5094787;28;20218;-71
2023/03/03 02:51:04;;;;;;;2.00;2.00;;;1.10;99.90;;;;;;5094630;28;20334;-71
2023/03/03 02:53:30;;;;;;;6.80;2.63;;;1.20;99.90;;;;;;5094622;28;20246;-72
2023/03/03 02:55:55;;;;;;;11.47;6.27;;;1.30;99.90;;;;;;5095012;28;20174;-71
2023/03/03 02:58:21;;;;;;;3.90;1.23;;;1.40;99.90;;;;;;5094894;28;20189;-71
2023/03/03 03:00:47;;;;;;;2.20;1.80;;;1.40;99.90;;;;;;5094470;28;20179;-71
2023/03/03 03:03:13;;;;;;;5.40;5.10;;;1.50;99.90;;;;;;5094696;28;20172;-71
2023/03/03 03:05:39;;;;;;;1.90;1.80;;;1.50;99.90;;;;;;5094643;28;20175;-71
2023/03/03 03:08:05;;;;;;;1.45;1.35;;;1.60;99.90;;;;;;5094689;28;20180;-70
2023/03/03 03:10:30;;;;;;;2.20;1.63;;;1.60;99.90;;;;;;5094518;28;20238;-71
2023/03/03 03:12:56;;;;;;;4.97;4.77;;;1.70;99.90;;;;;;5094605;28;20213;-70
2023/03/03 03:15:21;;;;;;;2.47;2.37;;;1.70;99.80;;;;;;5094391;28;20264;-71
2023/03/03 03:17:47;;;;;;;1.40;1.40;;;1.80;99.50;;;;;;5094427;28;20169;-70
2023/03/03 03:20:13;;;;;;;3.70;3.13;;;1.80;99.50;;;;;;5094171;28;20195;-71
2023/03/03 03:22:38;;;;;;;5.63;4.50;;;1.90;99.70;;;;;;5094234;28;20254;-71
2023/03/03 03:25:04;;;;;;;5.17;2.80;;;2.00;99.60;;;;;;5094156;28;20173;-70
2023/03/03 03:27:30;;;;;;;2.83;2.70;;;2.00;99.20;;;;;;5094356;28;20164;-71
2023/03/03 03:29:56;;;;;;;2.73;2.60;;;2.10;99.00;;;;;;5093936;28;20426;-71
2023/03/03 03:32:21;;;;;;;4.30;4.00;;;2.10;98.90;;;;;;5094255;28;20204;-71
2023/03/03 03:34:47;;;;;;;2.53;2.43;;;2.10;98.90;;;;;;5092858;28;20175;-71
2023/03/03 03:37:13;;;;;;;4.23;3.83;;;2.20;98.60;;;;;;5094172;28;20169;-71
2023/03/03 03:39:38;;;;;;;4.13;3.93;;;2.30;98.50;;;;;;5093795;28;20280;-71
2023/03/03 03:42:04;;;;;;;1.57;1.57;;;2.30;98.50;;;;;;5093708;28;20196;-71
2023/03/03 03:44:30;;;;;;;5.83;3.23;;;2.30;98.50;;;;;;5093851;28;20169;-71
2023/03/03 03:46:55;;;;;;;1.80;1.70;;;2.30;98.40;;;;;;5093781;28;20185;-71
2023/03/03 03:49:21;;;;;;;3.10;3.00;;;2.40;98.50;;;;;;5093725;28;20203;-71
2023/03/03 03:51:46;;;;;;;3.13;3.00;;;2.40;98.50;;;;;;5093804;28;20204;-71
2023/03/03 03:54:12;;;;;;;16.53;2.30;;;2.40;98.50;;;;;;5093908;28;20200;-70
2023/03/03 03:56:38;;;;;;;4.13;3.77;;;2.50;98.70;;;;;;5093874;28;20169;-70
2023/03/03 03:59:05;;;;;;;1.87;1.87;;;2.50;98.70;;;;;;5093678;28;20235;-72
2023/03/03 04:01:31;;;;;;;3.47;3.22;;;2.50;98.80;;;;;;5093589;28;20224;-71
2023/03/03 04:03:57;;;;;;;1.67;1.57;;;2.50;99.00;;;;;;5093281;28;20256;-71
2023/03/03 04:06:22;;;;;;;4.60;2.13;;;2.50;99.30;;;;;;5092962;28;20179;-71
2023/03/03 04:08:48;;;;;;;1.03;1.03;;;2.40;99.40;;;;;;5093346;28;20188;-71
2023/03/03 04:11:14;;;;;;;4.03;3.63;;;2.40;99.70;;;;;;5093560;28;20676;-70
2023/03/03 04:13:39;;;;;;;6.80;3.07;;;2.40;99.80;;;;;;5093445;28;20194;-71
2023/03/03 04:16:05;;;;;;;3.70;3.50;;;2.40;99.90;;;;;;5093446;28;20259;-71
2023/03/03 04:18:31;;;;;;;3.20;2.97;;;2.50;99.90;;;;;;5093312;28;20184;-71
2023/03/03 04:20:57;;;;;;;3.93;2.73;;;2.50;99.90;;;;;;5093649;28;20403;-71
2023/03/03 04:23:22;;;;;;;5.47;5.27;;;2.60;99.90;;;;;;5093551;28;20258;-71
2023/03/03 04:25:48;;;;;;;14.67;6.10;;;2.60;99.70;;;;;;5093477;28;20431;-71
2023/03/03 04:28:15;;;;;;;10.90;3.95;;;2.70;99.50;;;;;;5093187;28;20212;-71
2023/03/03 04:30:41;;;;;;;2.47;2.28;;;2.70;99.20;;;;;;5093071;28;20196;-70
2023/03/03 04:33:07;;;;;;;2.13;1.77;;;2.70;99.10;;;;;;5093266;28;20209;-71
2023/03/03 04:35:33;;;;;;;2.80;2.70;;;2.70;99.10;;;;;;5093328;28;20403;-71
2023/03/03 04:37:59;;;;;;;2.30;2.20;;;2.70;99.30;;;;;;5093306;28;20809;-71
2023/03/03 04:40:24;;;;;;;2.97;2.43;;;2.60;99.20;;;;;;5093036;28;20184;-71
2023/03/03 04:42:50;;;;;;;2.20;2.10;;;2.60;99.20;;;;;;5093189;28;20632;-72
2023/03/03 04:45:16;;;;;;;5.38;2.78;;;2.60;99.40;;;;;;5091906;28;20536;-71
2023/03/03 04:47:42;;;;;;;5.37;2.63;;;2.60;99.20;;;;;;5093006;28;20189;-71
2023/03/03 04:50:09;;;;;;;6.93;6.60;;;2.60;99.10;;;;;;5092787;28;20428;-71
2023/03/03 04:52:35;;;;;;;6.68;3.45;;;2.60;99.30;;;;;;5093155;28;20415;-71
2023/03/03 04:55:01;;;;;;;1.38;1.38;;;2.60;99.40;;;;;;5093209;28;20263;-71
2023/03/03 04:57:27;;;;;;;2.57;2.40;;;2.70;99.40;;;;;;5093055;28;20200;-71
2023/03/03 04:59:53;;;;;;;2.27;2.17;;;2.70;99.20;;;;;;5092845;28;20193;-70
2023/03/03 05:02:18;;;;;;;3.60;3.47;;;2.60;99.20;;;;;;5091763;28;20656;-71
2023/03/03 05:04:44;;;;;;;3.50;3.30;;;2.50;99.20;;;;;;5093099;28;20497;-71
2023/03/03 05:07:09;;;;;;;3.27;2.90;;;2.50;99.30;;;;;;5092979;28;20169;-71
2023/03/03 05:09:35;;;;;;;2.73;2.63;;;2.40;99.30;;;;;;5092704;28;20190;-71
2023/03/03 05:12:01;;;;;;;2.33;2.22;;;2.30;99.60;;;;;;5093061;28;20212;-71
2023/03/03 05:14:27;;;;;;;2.97;2.77;;;2.20;99.80;;;;;;5092967;28;20173;-71
2023/03/03 05:16:53;;;;;;;5.07;4.77;;;2.30;99.90;;;;;;5094938;28;20452;-71
2023/03/03 05:19:19;;;;;;;4.25;3.85;;;2.40;99.80;;;;;;5096446;28;20549;-71
2023/03/03 05:21:44;;;;;;;2.83;2.70;;;2.40;99.70;;;;;;5096710;28;20190;-71
2023/03/03 05:24:11;;;;;;;4.03;3.83;;;2.30;99.80;;;;;;5096690;28;20182;-71
2023/03/03 05:26:38;;;;;;;1.73;1.63;;;2.40;99.80;;;;;;5096509;28;20175;-71
2023/03/03 05:29:04;;;;;;;2.08;1.98;;;2.40;99.90;;;;;;5096188;28;20189;-70
2023/03/03 05:31:30;;;;;;;0.80;0.80;;;2.50;99.90;;;;;;5096436;28;20597;-71
2023/03/03 05:33:55;;;;;;;5.03;1.80;;;2.50;99.70;;;;;;5096471;28;20176;-71
2023/03/03 05:36:21;;;;;;;2.07;2.07;;;2.50;99.70;;;;;;5096597;28;20163;-71
2023/03/03 05:38:47;;;;;;;5.47;2.57;;;2.50;99.60;;;;;;5096159;28;20184;-71
2023/03/03 05:41:12;;;;;;;5.90;5.40;;;2.50;99.50;;;;;;5096214;28;20182;-71
2023/03/03 05:43:38;;;;;;;5.73;5.00;;;2.50;99.30;;;;;;5096418;28;20687;-71
2023/03/03 05:46:04;;;;;;;2.73;2.43;;;2.50;99.30;;;;;;5096268;28;20165;-70
2023/03/03 05:48:29;;;;;;;4.50;4.30;;;2.50;99.40;;;;;;5096141;28;20254;-71
2023/03/03 05:50:59;;;;;;;2.00;1.90;;;2.40;99.20;;;;;;5095812;28;20239;-71
2023/03/03 05:53:26;;;;;;;18.20;3.53;;;2.40;99.10;;;;;;5094836;28;20266;-71
2023/03/03 05:55:52;;;;;;;1.75;1.75;;;2.30;99.10;;;;;;5096149;28;20169;-70
2023/03/03 05:58:17;;;;;;;0.73;0.73;;;2.30;99.30;;;;;;5096070;28;20202;-70
2023/03/03 06:00:43;;;;;;;5.13;2.63;;;2.30;99.10;;;;;;5095728;28;20206;-71
2023/03/03 06:03:09;;;;;;;2.17;2.07;;;2.20;99.10;;;;;;5096039;28;20168;-70
2023/03/03 06:05:34;;;;;;;10.90;2.07;;;2.20;99.10;;;;;;5096023;28;20271;-72
2023/03/03 06:08:00;;;;;;;3.20;3.03;;;2.10;99.20;;;;;;5095788;28;20169;-71
2023/03/03 06:10:26;;;;;;;2.80;2.63;;;2.10;99.30;;;;;;5095458;28;20172;-71
2023/03/03 06:12:51;;;;;;;10.33;4.37;;;2.10;99.50;;;;;;5095653;28;20178;-71
2023/03/03 06:15:17;;;;;;;0.80;0.80;;;2.20;99.50;;;;;;5095676;28;20172;-71
2023/03/03 06:17:43;;;;;;;3.47;3.17;;;2.20;99.50;;;;;;5095678;28;20200;-70
2023/03/03 06:20:09;;;;;;;1.20;1.20;;;2.20;99.40;;;;;;5095350;28;20417;-71
2023/03/03 06:22:35;;;;;;;2.50;2.40;;;2.10;99.50;;;;;;5095404;28;20190;-70
2023/03/03 06:25:00;;;;;;;1.93;1.93;;;2.10;99.60;;;;;;5095381;28;20173;-70
2023/03/03 06:27:26;;;;;;;2.00;1.90;;;2.20;99.90;;;;;;5094740;28;20176;-71
2023/03/03 06:29:52;;;;;;;2.80;2.60;;;2.20;99.90;;;;;;5094862;28;20271;-71
2023/03/03 06:32:17;;;;;;;2.30;2.13;;;2.30;99.60;;;;;;5094317;28;20197;-73
2023/03/03 06:34:43;;;;;;;4.43;3.80;;;2.30;99.50;;;;;;5095212;28;20172;-74
2023/03/03 06:37:08;;;;;;;5.43;4.60;;;2.40;99.40;;;;;;5095385;28;20218;-70
2023/03/03 06:39:34;;;;;;;3.60;3.50;;;2.40;99.30;;;;;;5094971;28;20229;-72
2023/03/03 06:42:00;;;;;;;4.27;3.87;;;2.30;99.10;;;;;;5095321;28;20203;-77
2023/03/03 06:44:25;;;;;;;2.27;2.17;;;2.40;98.80;;;;;;5095152;28;20575;-76
2023/03/03 06:46:52;;;;;;;4.43;2.00;;;2.40;98.70;;;;;;5094900;28;20238;-70
2023/03/03 06:49:18;;;;;;;2.75;2.65;;;2.40;98.90;;;;;;5092577;28;20200;-70
2023/03/03 06:51:45;;;;;;;1.70;1.60;;;2.40;99.00;;;;;;5094951;28;20718;-70
2023/03/03 06:54:11;;;;;;;5.28;4.97;;;2.40;99.20;;;;;;5095033;28;20413;-70
2023/03/03 06:56:37;;;;;;;3.35;3.15;;;2.40;99.40;;;;;;5094049;28;20247;-70
2023/03/03 06:59:13;;;;;;;2.78;2.65;;;2.50;99.40;;;;;;5091802;28;20752;-70
2023/03/03 07:01:40;;;;;;;5.40;4.43;;;2.60;99.20;;;;;;5094823;28;20187;-74
2023/03/03 07:04:33;;;;;;;3.80;3.70;;;2.60;99.10;;;;;;5093789;28;20189;-75
2023/03/03 07:07:24;;;;;;;2.70;2.65;;;2.70;98.80;;;;;;5093350;28;20687;-74
2023/03/03 07:09:52;;;;;;;3.17;3.05;;;2.70;98.90;;;;;;5094409;28;20216;-73
2023/03/03 07:12:24;;;;;;;1.85;1.75;;;2.70;98.80;;;;;;5094424;28;20200;-73
2023/03/03 07:14:55;;;;;;;2.70;2.60;;;2.80;98.40;;;;;;5094902;28;20176;-72
2023/03/03 07:17:24;;;;;;;4.50;2.80;;;2.90;98.50;;;;;;5094638;28;20510;-70
2023/03/03 07:19:50;;;;;;;2.42;2.33;;;3.00;98.70;;;;;;5094024;28;20214;-70
2023/03/03 07:22:23;;;;;;;6.10;5.60;;;2.90;98.00;;;;;;5094760;28;20255;-70
2023/03/03 07:24:52;;;;;;;4.18;3.95;;;3.00;98.40;;;;;;5094247;28;20406;-70
2023/03/03 07:27:27;;;;;;;4.22;3.88;;;3.10;98.20;;;;;;5094848;28;20173;-70
2023/03/03 07:29:59;;;;;;;4.95;4.65;;;3.10;97.90;;;;;;5093846;28;20546;-71
2023/03/03 07:32:41;;;;;;;2.38;1.42;;;3.20;97.60;;;;;;5094442;28;20665;-72
2023/03/03 07:35:37;;;;;;;3.70;3.50;;;3.30;97.70;;;;;;5094738;28;20169;-72
2023/03/03 07:38:21;;;;;;;7.85;5.57;;;3.50;97.60;;;;;;5092769;28;20177;-72
2023/03/03 07:40:50;;;;;;;5.53;5.25;;;3.50;97.40;;;;;;5094122;28;20576;-70
2023/03/03 07:43:28;;;;;;;6.07;5.20;;;3.70;97.40;;;;;;5094430;28;20177;-71
2023/03/03 07:46:09;;;;;;;5.80;4.97;;;3.90;96.80;;;;;;5094238;28;20247;-72
2023/03/03 07:48:37;;;;;;;7.00;3.42;;;4.00;96.00;;;;;;5093830;28;20204;-71
2023/03/03 07:51:26;;;;;;;3.03;2.92;;;4.20;96.20;;;;;;5093910;28;20690;-71
2023/03/03 07:54:13;;;;;;;10.15;4.00;;;4.40;96.10;;;;;;5094352;28;20170;-71
2023/03/03 07:56:39;;;;;;;2.22;2.13;;;4.70;96.20;;;;;;5082958;28;20194;-72
2023/03/03 07:59:34;;;;;;;6.60;3.67;;;5.80;95.70;;;;;;5093623;28;20200;-72
2023/03/03 08:02:00;;;;;;;9.98;7.55;;;7.20;92.90;;;;;;5092224;28;20763;-70
2023/03/03 08:04:43;;;;;;;5.40;4.45;;;7.90;90.70;;;;;;5092975;28;20173;-72
2023/03/03 08:07:15;;;;;;;10.68;7.15;;;8.40;87.90;;;;;;5093643;28;20513;-71
2023/03/03 08:10:00;;;;;;;10.65;8.32;;;8.40;85.50;;;;;;5093685;28;20275;-71
2023/03/03 08:12:40;;;;;;;7.88;6.22;;;8.10;84.40;;;;;;5093844;28;20206;-72
2023/03/03 08:15:29;;;;;;;8.23;4.45;;;7.80;85.80;;;;;;5093803;28;20161;-73
2023/03/03 08:17:55;;;;;;;4.55;3.95;;;7.70;85.90;;;;;;5093748;28;20343;-73
2023/03/03 08:20:33;;;;;;;4.07;3.73;;;7.70;85.90;;;;;;5093631;28;20269;-71
2023/03/03 08:22:58;;;;;;;5.70;5.13;;;7.50;86.10;;;;;;5092062;28;20442;-73
2023/03/03 08:25:24;;;;;;;4.57;4.17;;;7.50;87.10;;;;;;5094058;28;20261;-72
2023/03/03 08:27:50;;;;;;;4.20;3.87;;;7.50;87.40;;;;;;5093415;28;20173;-73
2023/03/03 08:30:15;;;;;;;8.90;3.40;;;7.50;87.30;;;;;;5093305;28;20184;-73
2023/03/03 08:32:41;;;;;;;5.17;4.80;;;7.40;87.00;;;;;;5093639;28;20260;-73
2023/03/03 08:35:07;;;;;;;3.63;3.40;;;7.30;87.10;;;;;;5093699;28;20173;-72
2023/03/03 08:37:32;;;;;;;10.13;4.00;;;7.10;87.70;;;;;;5093840;28;20175;-72
2023/03/03 08:39:58;;;;;;;4.37;4.07;;;7.10;88.30;;;;;;5093204;28;20980;-74
2023/03/03 08:42:24;;;;;;;13.90;5.70;;;7.20;88.80;;;;;;5093316;28;20371;-72
2023/03/03 08:44:49;;;;;;;9.37;7.67;;;7.40;88.30;;;;;;5093417;28;20165;-73
2023/03/03 08:47:15;;;;;;;5.50;4.97;;;7.50;88.30;;;;;;5093235;28;20267;-73
2023/03/03 08:49:40;;;;;;;4.70;4.27;;;7.70;88.40;;;;;;5093188;28;20189;-71
2023/03/03 08:52:06;;;;;;;4.23;3.77;;;8.00;87.40;;;;;;5095985;28;20283;-72
2023/03/03 08:54:32;;;;;;;11.80;6.20;;;8.20;86.30;;;;;;5097855;28;20165;-73
2023/03/03 08:56:57;;;;;;;4.30;3.83;;;8.50;85.50;;;;;;5097349;28;20176;-73
2023/03/03 08:59:23;;;;;;;6.03;5.37;;;8.70;85.30;;;;;;5096918;28;20196;-71
2023/03/03 09:01:49;;;;;;;5.37;3.87;;;8.80;83.70;;;;;;5097335;28;20210;-72
2023/03/03 09:04:14;;;;;;;9.93;4.30;;;8.60;83.40;;;;;;5097680;28;20172;-67
2023/03/03 09:06:40;;;;;;;8.47;4.43;;;8.60;84.40;;;;;;5097463;28;20204;-68
2023/03/03 09:09:05;;;;;;;4.30;3.93;;;8.70;84.80;;;;;;5096827;28;20185;-68
2023/03/03 09:11:32;;;;;;;5.00;4.17;;;8.90;84.40;;;;;;5097240;28;20197;-68
2023/03/03 09:14:09;;;;;;;8.25;5.97;;;9.10;84.30;;;;;;5096941;28;20175;-67
2023/03/03 09:16:38;;;;;;;11.17;3.17;;;9.40;84.90;;;;;;5097143;28;20234;-68
2023/03/03 09:19:32;;;;;;;5.80;4.27;;;10.00;81.80;;;;;;5096918;28;20427;-71
2023/03/03 09:22:20;;;;;;;5.93;4.30;;;10.90;80.40;;;;;;5096754;28;20391;-69
2023/03/03 09:24:47;;;;;;;7.87;5.20;;;11.60;76.50;;;;;;5096607;28;20395;-69
2023/03/03 09:27:18;;;;;;;12.30;5.27;;;12.40;74.00;;;;;;5096955;28;20407;-69
2023/03/03 09:29:44;;;;;;;11.27;7.10;;;13.10;70.10;;;;;;5095300;28;20423;-72
2023/03/03 09:32:38;;;;;;;4.00;2.87;;;13.40;68.70;;;;;;5097089;28;20428;-72
2023/03/03 09:35:33;;;;;;;6.53;5.00;;;13.30;67.10;;;;;;5095247;28;20169;-71
2023/03/03 09:38:01;;;;;;;4.00;3.73;;;13.10;67.60;;;;;;5095618;28;20408;-69
2023/03/03 09:40:44;;;;;;;6.80;4.77;;;12.70;68.00;;;;;;5095188;28;20434;-69
2023/03/03 09:43:38;;;;;;;7.63;6.33;;;11.90;67.70;;;;;;5095143;28;20406;-70
2023/03/03 09:46:48;;;;;;;12.00;3.77;;;11.10;70.20;;;;;;5080745;28;20981;-69
2023/03/03 09:49:32;;;;;;;7.33;5.43;;;10.50;73.00;;;;;;5096166;28;20456;-69
2023/03/03 09:51:58;;;;;;;2.87;2.67;;;10.30;74.10;;;;;;5096236;28;20404;-69
2023/03/03 09:54:38;;;;;;;4.40;4.00;;;10.10;75.30;;;;;;5096223;28;20870;-71
2023/03/03 09:57:16;;;;;;;7.10;5.50;;;10.10;75.80;;;;;;5095227;28;20170;-70
2023/03/03 09:59:47;;;;;;;4.60;4.20;;;10.00;76.40;;;;;;5094551;28;20430;-72
2023/03/03 10:02:31;;;;;;;8.47;4.77;;;10.20;77.50;;;;;;5094183;28;20842;-74
2023/03/03 10:05:03;;;;;;;7.27;4.57;;;10.40;77.10;;;;;;5095507;28;20486;-73
2023/03/03 10:07:43;;;;;;;4.07;3.63;;;10.30;76.20;;;;;;5094348;28;20912;-74
2023/03/03 10:10:30;;;;;;;10.02;5.65;;;10.00;76.60;;;;;;5094609;28;20415;-73
2023/03/03 10:13:22;;;;;;;11.35;4.30;;;9.70;78.80;;;;;;5094502;28;20169;-74
2023/03/03 10:16:15;;;;;;;4.28;3.88;;;9.40;80.00;;;;;;5095607;28;20343;-73
2023/03/03 10:18:49;;;;;;;4.22;3.10;;;9.00;81.80;;;;;;5094622;28;20189;-71
2023/03/03 10:21:24;;;;;;;3.15;2.88;;;9.00;83.20;;;;;;5094604;28;20200;-71
2023/03/03 10:24:20;;;;;;;2.85;2.65;;;9.20;82.70;;;;;;5095576;28;20289;-72
2023/03/03 10:27:11;;;;;;;4.15;3.85;;;9.60;82.00;;;;;;5093825;28;20638;-72
2023/03/03 10:29:58;;;;;;;4.70;4.23;;;10.00;80.20;;;;;;5095171;28;20672;-72
2023/03/03 10:32:44;;;;;;;8.10;4.93;;;10.10;79.00;;;;;;5095575;28;20472;-71
2023/03/03 10:35:38;;;;;;;8.68;3.30;;;10.40;78.70;;;;;;5094639;28;20196;-70
2023/03/03 10:38:24;;;;;;;4.80;4.47;;;10.40;78.70;;;;;;5095229;28;20667;-70
2023/03/03 10:41:34;;;;;;;3.00;2.10;;;10.60;79.30;;;;;;5095086;28;20458;-71
2023/03/03 10:43:59;;;;;;;14.60;5.93;;;11.10;77.70;;;;;;5087304;28;20510;-71
2023/03/03 10:46:45;;;;;;;6.47;5.83;;;11.30;76.30;;;;;;5093989;28;20537;-70
2023/03/03 10:50:05;;;;;;;3.33;3.10;;;11.30;75.80;;;;;;5095231;28;20196;-70
2023/03/03 10:52:43;;;;;;;7.20;4.90;;;11.00;76.50;;;;;;5033004;28;20406;-70
2023/03/03 10:55:40;;;;;;;5.38;3.50;;;10.40;77.40;;;;;;5084535;28;20776;-70
2023/03/03 10:58:30;;;;;;;14.07;6.97;;;10.10;78.40;;;;;;5094962;28;20171;-70
2023/03/03 11:01:10;;;;;;;7.30;6.15;;;9.90;81.40;;;;;;5094946;28;20451;-71
2023/03/03 11:03:58;;;;;;;6.63;5.45;;;9.80;81.30;;;;;;5094917;28;20211;-70
2023/03/03 11:06:53;;;;;;;7.72;5.47;;;9.70;82.00;;;;;;5094840;28;20169;-70
2023/03/03 11:09:43;;;;;;;6.15;3.95;;;9.50;82.40;;;;;;5093144;28;20677;-70
2023/03/03 11:12:15;;;;;;;6.30;4.50;;;9.20;83.70;;;;;;5095200;28;20220;-70
2023/03/03 11:14:49;;;;;;;5.45;4.93;;;9.30;85.10;;;;;;5094083;28;20208;-70
2023/03/03 11:17:18;;;;;;;8.10;2.85;;;9.80;84.70;;;;;;5094642;28;20172;-70
2023/03/03 11:20:00;;;;;;;12.35;7.32;;;10.20;81.60;;;;;;5093389;28;20558;-72
2023/03/03 11:22:29;;;;;;;6.72;6.07;;;10.40;80.30;;;;;;5094823;28;20196;-71
2023/03/03 11:25:13;;;;;;;8.33;3.50;;;10.40;79.40;;;;;;5094147;28;20169;-72
2023/03/03 11:27:53;;;;;;;8.43;5.73;;;10.70;79.00;;;;;;5094540;28;20422;-72
2023/03/03 11:30:40;;;;;;;6.97;4.73;;;11.10;78.10;;;;;;5094023;28;20827;-73
2023/03/03 11:33:17;;;;;;;9.13;4.10;;;11.40;75.80;;;;;;5094281;28;20879;-72
2023/03/03 11:36:04;;;;;;;7.53;4.73;;;11.40;76.70;;;;;;5094134;28;20786;-73
2023/03/03 11:38:48;;;;;;;5.27;4.73;;;11.10;74.00;;;;;;5092257;28;20429;-72
2023/03/03 11:41:29;;;;;;;4.07;3.63;;;11.10;74.00;;;;;;5094395;28;20530;-71
2023/03/03 11:44:04;;;;;;;6.00;4.18;;;11.00;74.20;;;;;;5092704;28;20179;-71
2023/03/03 11:46:36;;;;;;;5.60;3.10;;;10.90;74.40;;;;;;5093019;28;20163;-71
2023/03/03 11:49:08;;;;;;;5.93;3.30;;;10.80;76.00;;;;;;5094040;28;20435;-72
2023/03/03 11:51:46;;;;;;;3.37;3.07;;;11.00;77.10;;;;;;5093125;28;20402;-70
2023/03/03 11:54:34;;;;;;;9.20;4.60;;;11.40;74.60;;;;;;5092917;28;20449;-73
2023/03/03 11:57:29;;;;;;;4.60;4.10;;;11.50;74.70;;;;;;5093031;28;20518;-73
2023/03/03 12:00:15;;;;;;;3.97;3.57;;;11.60;73.40;;;;;;5085525;28;20585;-73
2023/03/03 12:02:57;;;;;;;4.93;4.53;;;11.60;73.00;;;;;;5093420;28;20461;-70
2023/03/03 12:05:35;;;;;;;6.07;5.10;;;11.60;73.30;;;;;;5093790;28;20501;-70
2023/03/03 12:08:26;;;;;;;4.60;4.20;;;11.80;72.60;;;;;;5092238;28;20516;-70
2023/03/03 12:11:37;;;;;;;3.23;2.27;;;12.00;71.80;;;;;;5093003;28;20419;-70
2023/03/03 12:14:38;;;;;;;6.30;4.20;;;12.20;70.10;;;;;;5092479;28;20843;-70
2023/03/03 12:17:45;;;;;;;3.97;3.50;;;12.00;71.10;;;;;;5093517;28;20490;-70
2023/03/03 12:20:19;;;;;;;3.43;3.20;;;11.70;71.00;;;;;;5089009;28;20458;-70
2023/03/03 12:23:04;;;;;;;3.40;3.07;;;11.80;70.70;;;;;;5092096;28;20494;-70
2023/03/03 12:25:44;;;;;;;14.23;5.73;;;11.80;69.70;;;;;;5093028;28;20894;-70
2023/03/03 12:28:19;;;;;;;5.77;4.00;;;11.60;69.50;;;;;;5093358;28;20414;-70
2023/03/03 12:30:57;;;;;;;13.60;4.43;;;11.10;69.80;;;;;;5093244;28;20417;-70
2023/03/03 12:33:51;;;;;;;5.33;2.70;;;11.00;71.60;;;;;;5093499;28;20402;-70
2023/03/03 12:36:25;;;;;;;6.30;2.80;;;11.00;70.60;;;;;;5093258;28;20484;-70
2023/03/03 12:39:04;;;;;;;6.83;3.97;;;11.00;72.30;;;;;;5093218;28;20796;-70
2023/03/03 12:41:36;;;;;;;6.87;4.00;;;11.00;72.70;;;;;;5093379;28;20449;-70
2023/03/03 12:44:12;;;;;;;6.63;3.67;;;11.00;71.60;;;;;;5093910;28;20437;-70
2023/03/03 12:47:05;;;;;;;3.23;3.03;;;11.10;72.20;;;;;;5093621;28;20391;-70
2023/03/03 12:49:46;;;;;;;2.23;2.03;;;11.30;70.60;;;;;;5082059;28;20453;-70
2023/03/03 12:52:30;;;;;;;6.07;4.77;;;11.60;71.60;;;;;;5093363;28;20399;-70
2023/03/03 12:55:13;;;;;;;5.50;5.10;;;11.60;69.80;;;;;;5093578;28;20399;-70
2023/03/03 12:57:54;;;;;;;3.25;3.00;;;11.40;70.30;;;;;;5093398;28;20484;-70
2023/03/03 13:00:40;;;;;;;3.47;3.17;;;11.10;70.60;;;;;;5092860;28;20188;-70
2023/03/03 13:03:25;;;;;;;5.38;2.90;;;11.00;71.30;;;;;;5091013;28;20180;-72
2023/03/03 13:06:39;;;;;;;4.78;4.15;;;10.80;73.10;;;;;;5092093;28;20296;-72
2023/03/03 13:09:24;;;;;;;2.83;2.27;;;10.80;73.20;;;;;;5037862;28;20698;-74
2023/03/03 13:12:08;;;;;;;4.72;4.00;;;10.90;72.30;;;;;;5092259;28;20426;-72
2023/03/03 13:14:40;;;;;;;9.18;5.85;;;11.00;71.60;;;;;;5092835;28;20175;-72
2023/03/03 14:58:53;;;;;;;3.95;1.55;;;9.40;72.70;;;;;;5037451;28;20221;-71
2023/03/03 15:01:31;;;;;;;6.45;3.47;;;9.20;74.60;;;;;;5054254;28;20234;-68
2023/03/03 15:03:58;;;;;;;3.10;2.72;;;9.30;75.00;;;;;;5054202;28;20170;-68